sensor_id;sensor_type;location;lat;lon;timestamp;pressure;altitude;pressure_sealevel;temperature;humidity
70521;BME280;58442;52.716;23.560;2023-04-03T00:00:44;101693.33;;;3.66;65.17
70521;BME280;58442;52.716;23.560;2023-04-03T00:02:51;101701.92;;;3.63;65.17
70521;BME280;58442;52.716;23.560;2023-04-03T00:04:56;101708.67;;;3.61;65.21
70521;BME280;58442;52.716;23.560;2023-04-03T00:06:58;101704.66;;;3.58;65.11
70521;BME280;58442;52.716;23.560;2023-04-03T00:08:59;101701.18;;;3.58;65.06
70521;BME280;58442;52.716;23.560;2023-04-03T00:11:01;101715.41;;;3.58;64.94
70521;BME280;58442;52.716;23.560;2023-04-03T00:13:12;101708.69;;;3.55;64.90
70521;BME280;58442;52.716;23.560;2023-04-03T00:15:13;101711.13;;;3.52;64.16
70521;BME280;58442;52.716;23.560;2023-04-03T00:17:14;101711.44;;;3.45;64.62
70521;BME280;58442;52.716;23.560;2023-04-03T00:19:16;101710.91;;;3.43;64.70
70521;BME280;58442;52.716;23.560;2023-04-03T00:21:27;101714.13;;;3.40;64.49
70521;BME280;58442;52.716;23.560;2023-04-03T00:23:28;101711.20;;;3.37;64.54
70521;BME280;58442;52.716;23.560;2023-04-03T00:25:29;101717.64;;;3.36;64.50
70521;BME280;58442;52.716;23.560;2023-04-03T00:27:31;101725.70;;;3.36;64.43
70521;BME280;58442;52.716;23.560;2023-04-03T00:29:41;101717.39;;;3.32;64.24
70521;BME280;58442;52.716;23.560;2023-04-03T00:31:43;101718.48;;;3.26;64.20
70521;BME280;58442;52.716;23.560;2023-04-03T00:33:44;101720.38;;;3.20;64.05
70521;BME280;58442;52.716;23.560;2023-04-03T00:35:45;101721.22;;;3.16;64.18
70521;BME280;58442;52.716;23.560;2023-04-03T00:37:56;101724.43;;;3.13;64.13
70521;BME280;58442;52.716;23.560;2023-04-03T00:39:59;101722.55;;;3.08;63.95
70521;BME280;58442;52.716;23.560;2023-04-03T00:42:01;101718.82;;;3.04;63.93
70521;BME280;58442;52.716;23.560;2023-04-03T00:46:15;101735.49;;;2.96;63.69
70521;BME280;58442;52.716;23.560;2023-04-03T00:48:26;101724.48;;;2.87;63.72
70521;BME280;58442;52.716;23.560;2023-04-03T00:50:29;101725.03;;;2.84;63.71
70521;BME280;58442;52.716;23.560;2023-04-03T00:52:31;101725.83;;;2.80;63.71
70521;BME280;58442;52.716;23.560;2023-04-03T00:54:35;101742.49;;;2.77;63.60
70521;BME280;58442;52.716;23.560;2023-04-03T00:56:37;101737.11;;;2.71;63.59
70521;BME280;58442;52.716;23.560;2023-04-03T00:58:46;101740.08;;;2.65;63.44
70521;BME280;58442;52.716;23.560;2023-04-03T01:00:53;101731.21;;;2.59;63.47
70521;BME280;58442;52.716;23.560;2023-04-03T01:02:58;101735.52;;;2.55;63.53
70521;BME280;58442;52.716;23.560;2023-04-03T01:05:10;101746.78;;;2.52;63.54
70521;BME280;58442;52.716;23.560;2023-04-03T01:07:17;101747.32;;;2.49;63.46
70521;BME280;58442;52.716;23.560;2023-04-03T01:09:19;101739.80;;;2.46;63.39
70521;BME280;58442;52.716;23.560;2023-04-03T01:11:21;101756.72;;;2.41;63.25
70521;BME280;58442;52.716;23.560;2023-04-03T01:13:27;101753.21;;;2.36;63.36
70521;BME280;58442;52.716;23.560;2023-04-03T01:15:29;101755.88;;;2.31;63.32
70521;BME280;58442;52.716;23.560;2023-04-03T01:17:42;101762.87;;;2.27;63.26
70521;BME280;58442;52.716;23.560;2023-04-03T01:19:47;101767.14;;;2.23;63.20
70521;BME280;58442;52.716;23.560;2023-04-03T01:22:08;101765.52;;;2.16;63.24
70521;BME280;58442;52.716;23.560;2023-04-03T01:26:24;101769.79;;;2.12;63.23
70521;BME280;58442;52.716;23.560;2023-04-03T01:28:29;101775.96;;;2.08;62.98
70521;BME280;58442;52.716;23.560;2023-04-03T01:30:34;101769.25;;;2.00;63.15
70521;BME280;58442;52.716;23.560;2023-04-03T01:32:37;101788.52;;;1.97;63.15
70521;BME280;58442;52.716;23.560;2023-04-03T01:34:38;101779.65;;;1.91;63.19
70521;BME280;58442;52.716;23.560;2023-04-03T01:36:40;101779.66;;;1.86;63.17
70521;BME280;58442;52.716;23.560;2023-04-03T01:38:42;101775.88;;;1.82;63.14
70521;BME280;58442;52.716;23.560;2023-04-03T01:40:43;101783.66;;;1.79;63.15
70521;BME280;58442;52.716;23.560;2023-04-03T01:42:53;101790.59;;;1.75;63.20
70521;BME280;58442;52.716;23.560;2023-04-03T01:44:54;101788.45;;;1.72;63.02
70521;BME280;58442;52.716;23.560;2023-04-03T01:46:56;101798.07;;;1.68;63.03
70521;BME280;58442;52.716;23.560;2023-04-03T01:48:57;101788.41;;;1.67;63.10
70521;BME280;58442;52.716;23.560;2023-04-03T01:51:08;101785.45;;;1.63;63.06
70521;BME280;58442;52.716;23.560;2023-04-03T01:53:10;101793.75;;;1.61;63.07
70521;BME280;58442;52.716;23.560;2023-04-03T01:55:11;101791.61;;;1.58;63.00
70521;BME280;58442;52.716;23.560;2023-04-03T01:57:12;101790.50;;;1.54;63.01
70521;BME280;58442;52.716;23.560;2023-04-03T01:59:23;101796.13;;;1.53;63.01
70521;BME280;58442;52.716;23.560;2023-04-03T02:01:24;101789.94;;;1.47;62.85
70521;BME280;58442;52.716;23.560;2023-04-03T02:03:27;101786.41;;;1.42;63.05
70521;BME280;58442;52.716;23.560;2023-04-03T02:05:29;101795.52;;;1.41;63.07
70521;BME280;58442;52.716;23.560;2023-04-03T02:07:38;101795.22;;;1.37;63.03
70521;BME280;58442;52.716;23.560;2023-04-03T02:09:39;101806.19;;;1.35;63.00
70521;BME280;58442;52.716;23.560;2023-04-03T02:11:41;101800.56;;;1.32;62.96
70521;BME280;58442;52.716;23.560;2023-04-03T02:13:42;101795.70;;;1.29;63.13
70521;BME280;58442;52.716;23.560;2023-04-03T02:15:53;101809.63;;;1.26;63.12
70521;BME280;58442;52.716;23.560;2023-04-03T02:17:54;101814.18;;;1.25;62.98
70521;BME280;58442;52.716;23.560;2023-04-03T02:19:55;101816.55;;;1.22;63.10
70521;BME280;58442;52.716;23.560;2023-04-03T02:21:57;101808.52;;;1.22;63.05
70521;BME280;58442;52.716;23.560;2023-04-03T02:24:08;101812.54;;;1.19;63.05
70521;BME280;58442;52.716;23.560;2023-04-03T02:26:12;101816.50;;;1.17;63.04
70521;BME280;58442;52.716;23.560;2023-04-03T02:28:13;101813.29;;;1.15;63.03
70521;BME280;58442;52.716;23.560;2023-04-03T02:30:15;101819.71;;;1.14;63.04
70521;BME280;58442;52.716;23.560;2023-04-03T02:32:23;101822.65;;;1.12;63.01
70521;BME280;58442;52.716;23.560;2023-04-03T02:34:24;101821.05;;;1.11;62.98
70521;BME280;58442;52.716;23.560;2023-04-03T02:36:26;101823.95;;;1.09;62.95
70521;BME280;58442;52.716;23.560;2023-04-03T02:38:27;101829.84;;;1.06;62.98
70521;BME280;58442;52.716;23.560;2023-04-03T02:40:38;101834.64;;;1.04;63.00
70521;BME280;58442;52.716;23.560;2023-04-03T02:42:39;101832.46;;;1.01;62.93
70521;BME280;58442;52.716;23.560;2023-04-03T02:44:41;101837.54;;;0.98;62.88
70521;BME280;58442;52.716;23.560;2023-04-03T02:46:42;101842.32;;;0.96;62.98
70521;BME280;58442;52.716;23.560;2023-04-03T02:48:53;101842.03;;;0.92;62.91
70521;BME280;58442;52.716;23.560;2023-04-03T02:50:54;101838.24;;;0.88;62.85
70521;BME280;58442;52.716;23.560;2023-04-03T02:52:56;101845.99;;;0.85;62.98
70521;BME280;58442;52.716;23.560;2023-04-03T02:54:57;101846.25;;;0.83;63.05
70521;BME280;58442;52.716;23.560;2023-04-03T02:57:08;101852.64;;;0.82;63.01
70521;BME280;58442;52.716;23.560;2023-04-03T02:59:12;101852.64;;;0.82;62.94
70521;BME280;58442;52.716;23.560;2023-04-03T03:01:14;101860.38;;;0.78;62.83
70521;BME280;58442;52.716;23.560;2023-04-03T03:03:15;101864.61;;;0.74;62.97
70521;BME280;58442;52.716;23.560;2023-04-03T03:05:23;101860.33;;;0.73;63.01
70521;BME280;58442;52.716;23.560;2023-04-03T03:07:24;101866.74;;;0.72;62.90
70521;BME280;58442;52.716;23.560;2023-04-03T03:09:26;101868.88;;;0.70;62.99
70521;BME280;58442;52.716;23.560;2023-04-03T03:11:28;101857.60;;;0.68;62.95
70521;BME280;58442;52.716;23.560;2023-04-03T03:13:38;101868.02;;;0.65;62.99
70521;BME280;58442;52.716;23.560;2023-04-03T03:15:40;101868.50;;;0.62;62.99
70521;BME280;58442;52.716;23.560;2023-04-03T03:17:41;101878.39;;;0.61;63.04
70521;BME280;58442;52.716;23.560;2023-04-03T03:19:43;101872.24;;;0.61;63.01
70521;BME280;58442;52.716;23.560;2023-04-03T03:21:53;101869.83;;;0.59;63.02
70521;BME280;58442;52.716;23.560;2023-04-03T03:23:54;101864.73;;;0.58;62.86
70521;BME280;58442;52.716;23.560;2023-04-03T03:26:02;101867.89;;;0.54;62.95
70521;BME280;58442;52.716;23.560;2023-04-03T03:28:04;101874.55;;;0.52;62.94
70521;BME280;58442;52.716;23.560;2023-04-03T03:30:09;101871.61;;;0.48;63.01
70521;BME280;58442;52.716;23.560;2023-04-03T03:32:10;101874.27;;;0.48;62.94
70521;BME280;58442;52.716;23.560;2023-04-03T03:34:12;101868.34;;;0.46;62.99
70521;BME280;58442;52.716;23.560;2023-04-03T03:36:13;101862.20;;;0.46;63.01
70521;BME280;58442;52.716;23.560;2023-04-03T03:38:23;101860.84;;;0.43;62.98
70521;BME280;58442;52.716;23.560;2023-04-03T03:40:25;101864.31;;;0.44;62.94
70521;BME280;58442;52.716;23.560;2023-04-03T03:42:26;101863.52;;;0.43;62.94
70521;BME280;58442;52.716;23.560;2023-04-03T03:44:28;101863.52;;;0.43;62.92
70521;BME280;58442;52.716;23.560;2023-04-03T03:46:38;101866.19;;;0.43;62.94
70521;BME280;58442;52.716;23.560;2023-04-03T03:48:40;101866.45;;;0.42;62.91
70521;BME280;58442;52.716;23.560;2023-04-03T03:50:41;101871.22;;;0.40;62.87
70521;BME280;58442;52.716;23.560;2023-04-03T03:52:43;101872.80;;;0.36;62.86
70521;BME280;58442;52.716;23.560;2023-04-03T03:54:53;101864.71;;;0.31;62.99
70521;BME280;58442;52.716;23.560;2023-04-03T03:56:55;101870.32;;;0.29;63.07
70521;BME280;58442;52.716;23.560;2023-04-03T03:58:57;101867.90;;;0.28;63.06
70521;BME280;58442;52.716;23.560;2023-04-03T04:01:02;101879.95;;;0.30;63.06
70521;BME280;58442;52.716;23.560;2023-04-03T04:03:08;101867.57;;;0.24;62.99
70521;BME280;58442;52.716;23.560;2023-04-03T04:05:10;101874.54;;;0.25;63.08
70521;BME280;58442;52.716;23.560;2023-04-03T04:07:11;101876.15;;;0.26;63.09
70521;BME280;58442;52.716;23.560;2023-04-03T04:09:13;101867.06;;;0.27;63.03
70521;BME280;58442;52.716;23.560;2023-04-03T04:11:23;101868.13;;;0.26;63.01
70521;BME280;58442;52.716;23.560;2023-04-03T04:13:25;101878.01;;;0.25;63.02
70521;BME280;58442;52.716;23.560;2023-04-03T04:15:27;101874.79;;;0.23;62.82
70521;BME280;58442;52.716;23.560;2023-04-03T04:17:28;101879.81;;;0.20;62.99
70521;BME280;58442;52.716;23.560;2023-04-03T04:19:38;101869.38;;;0.18;63.04
70521;BME280;58442;52.716;23.560;2023-04-03T04:21:40;101873.91;;;0.18;62.99
70521;BME280;58442;52.716;23.560;2023-04-03T04:23:42;101875.52;;;0.19;63.03
70521;BME280;58442;52.716;23.560;2023-04-03T04:25:47;101878.20;;;0.19;63.01
70521;BME280;58442;52.716;23.560;2023-04-03T04:27:53;101872.86;;;0.19;62.98
70521;BME280;58442;52.716;23.560;2023-04-03T04:29:55;101881.68;;;0.19;62.98
70521;BME280;58442;52.716;23.560;2023-04-03T04:31:56;101882.48;;;0.20;62.96
70521;BME280;58442;52.716;23.560;2023-04-03T04:33:57;101888.90;;;0.19;62.95
70521;BME280;58442;52.716;23.560;2023-04-03T04:36:09;101884.61;;;0.18;62.90
70521;BME280;58442;52.716;23.560;2023-04-03T04:38:10;101879.26;;;0.18;62.99
70521;BME280;58442;52.716;23.560;2023-04-03T04:40:12;101882.73;;;0.18;62.96
70521;BME280;58442;52.716;23.560;2023-04-03T04:42:13;101889.96;;;0.18;62.99
70521;BME280;58442;52.716;23.560;2023-04-03T04:44:24;101889.15;;;0.17;62.98
70521;BME280;58442;52.716;23.560;2023-04-03T04:46:26;101902.26;;;0.19;62.97
70521;BME280;58442;52.716;23.560;2023-04-03T04:48:27;101899.58;;;0.19;62.97
70521;BME280;58442;52.716;23.560;2023-04-03T04:50:29;101898.78;;;0.18;62.99
70521;BME280;58442;52.716;23.560;2023-04-03T04:52:39;101909.73;;;0.17;62.97
70521;BME280;58442;52.716;23.560;2023-04-03T04:54:40;101907.06;;;0.17;63.03
70521;BME280;58442;52.716;23.560;2023-04-03T04:56:42;101908.91;;;0.16;63.09
70521;BME280;58442;52.716;23.560;2023-04-03T04:58:43;101912.95;;;0.19;63.08
70521;BME280;58442;52.716;23.560;2023-04-03T05:01:03;101917.81;;;0.22;63.02
70521;BME280;58442;52.716;23.560;2023-04-03T05:03:15;101912.77;;;0.25;62.99
70521;BME280;58442;52.716;23.560;2023-04-03T05:05:17;101914.38;;;0.26;62.91
70521;BME280;58442;52.716;23.560;2023-04-03T05:07:18;101909.84;;;0.27;62.92
70521;BME280;58442;52.716;23.560;2023-04-03T05:09:19;101920.52;;;0.27;62.94
70521;BME280;58442;52.716;23.560;2023-04-03T05:11:30;101919.73;;;0.26;62.94
70521;BME280;58442;52.716;23.560;2023-04-03T05:13:32;101922.17;;;0.28;62.96
70521;BME280;58442;52.716;23.560;2023-04-03T05:15:33;101925.15;;;0.32;62.92
70521;BME280;58442;52.716;23.560;2023-04-03T05:17:34;101925.95;;;0.32;62.88
70521;BME280;58442;52.716;23.560;2023-04-03T05:19:46;101941.99;;;0.32;62.88
70521;BME280;58442;52.716;23.560;2023-04-03T05:21:48;101934.52;;;0.34;62.85
70521;BME280;58442;52.716;23.560;2023-04-03T05:23:49;101928.14;;;0.35;62.90
70521;BME280;58442;52.716;23.560;2023-04-03T05:25:51;101928.95;;;0.36;62.92
70521;BME280;58442;52.716;23.560;2023-04-03T05:28:00;101931.36;;;0.37;62.90
70521;BME280;58442;52.716;23.560;2023-04-03T05:30:02;101941.55;;;0.40;62.88
70521;BME280;58442;52.716;23.560;2023-04-03T05:32:05;101934.11;;;0.42;62.84
70521;BME280;58442;52.716;23.560;2023-04-03T05:34:06;101931.98;;;0.44;62.76
70521;BME280;58442;52.716;23.560;2023-04-03T05:36:15;101944.30;;;0.45;62.75
70521;BME280;58442;52.716;23.560;2023-04-03T05:38:17;101930.93;;;0.45;62.74
70521;BME280;58442;52.716;23.560;2023-04-03T05:40:18;101933.34;;;0.47;62.78
70521;BME280;58442;52.716;23.560;2023-04-03T05:42:20;101923.23;;;0.49;62.69
70521;BME280;58442;52.716;23.560;2023-04-03T05:44:30;101930.98;;;0.50;62.69
70521;BME280;58442;52.716;23.560;2023-04-03T05:46:32;101928.87;;;0.52;62.63
70521;BME280;58442;52.716;23.560;2023-04-03T05:48:34;101928.38;;;0.56;62.62
70521;BME280;58442;52.716;23.560;2023-04-03T05:50:35;101928.67;;;0.59;62.62
70521;BME280;58442;52.716;23.560;2023-04-03T05:52:49;101916.65;;;0.62;62.57
70521;BME280;58442;52.716;23.560;2023-04-03T05:54:51;101933.02;;;0.65;62.44
70521;BME280;58442;52.716;23.560;2023-04-03T05:56:53;101926.60;;;0.66;62.37
70521;BME280;58442;52.716;23.560;2023-04-03T05:58:54;101924.25;;;0.70;62.32
70521;BME280;58442;52.716;23.560;2023-04-03T06:01:00;101923.19;;;0.71;62.31
70521;BME280;58442;52.716;23.560;2023-04-03T06:03:02;101930.95;;;0.72;62.00
70521;BME280;58442;52.716;23.560;2023-04-03T06:05:04;101934.44;;;0.73;62.16
70521;BME280;58442;52.716;23.560;2023-04-03T06:07:09;101940.11;;;0.76;62.13
70521;BME280;58442;52.716;23.560;2023-04-03T06:09:16;101930.75;;;0.79;62.07
70521;BME280;58442;52.716;23.560;2023-04-03T06:11:17;101924.09;;;0.81;61.97
70521;BME280;58442;52.716;23.560;2023-04-03T06:13:19;101937.23;;;0.83;61.92
70521;BME280;58442;52.716;23.560;2023-04-03T06:15:21;101940.20;;;0.87;61.92
70521;BME280;58442;52.716;23.560;2023-04-03T06:17:31;101923.39;;;0.91;61.78
70521;BME280;58442;52.716;23.560;2023-04-03T06:19:32;101939.99;;;0.93;61.61
70521;BME280;58442;52.716;23.560;2023-04-03T06:21:34;101934.15;;;0.96;61.64
70521;BME280;58442;52.716;23.560;2023-04-03T06:23:36;101945.95;;;1.00;61.51
70521;BME280;58442;52.716;23.560;2023-04-03T06:25:46;101936.86;;;1.01;61.45
70521;BME280;58442;52.716;23.560;2023-04-03T06:27:48;101942.20;;;1.01;61.42
70521;BME280;58442;52.716;23.560;2023-04-03T06:29:49;101940.11;;;1.03;61.36
70521;BME280;58442;52.716;23.560;2023-04-03T06:31:52;101945.47;;;1.03;61.31
70521;BME280;58442;52.716;23.560;2023-04-03T06:34:01;101938.24;;;1.04;61.32
70521;BME280;58442;52.716;23.560;2023-04-03T06:36:04;101931.02;;;1.04;60.99
70521;BME280;58442;52.716;23.560;2023-04-03T06:38:06;101946.81;;;1.06;61.05
70521;BME280;58442;52.716;23.560;2023-04-03T06:40:19;101939.59;;;1.06;61.06
70521;BME280;58442;52.716;23.560;2023-04-03T06:42:22;101943.62;;;1.09;61.09
70521;BME280;58442;52.716;23.560;2023-04-03T06:44:24;101948.22;;;1.14;60.99
70521;BME280;58442;52.716;23.560;2023-04-03T06:46:26;101939.66;;;1.17;60.81
70521;BME280;58442;52.716;23.560;2023-04-03T06:48:28;101945.33;;;1.20;60.85
70521;BME280;58442;52.716;23.560;2023-04-03T06:50:31;101947.00;;;1.26;60.76
70521;BME280;58442;52.716;23.560;2023-04-03T06:52:32;101952.63;;;1.30;60.60
70521;BME280;58442;52.716;23.560;2023-04-03T06:54:34;101956.43;;;1.34;60.36
70521;BME280;58442;52.716;23.560;2023-04-03T06:56:36;101971.49;;;1.40;60.41
70521;BME280;58442;52.716;23.560;2023-04-03T06:58:46;101966.46;;;1.49;60.32
70521;BME280;58442;52.716;23.560;2023-04-03T07:00:47;101950.17;;;1.55;60.17
70521;BME280;58442;52.716;23.560;2023-04-03T07:02:49;101953.74;;;1.66;60.07
70521;BME280;58442;52.716;23.560;2023-04-03T07:04:50;101965.59;;;1.75;59.99
70521;BME280;58442;52.716;23.560;2023-04-03T07:07:01;101965.41;;;1.87;59.83
70521;BME280;58442;52.716;23.560;2023-04-03T07:09:02;101968.40;;;1.96;59.59
70521;BME280;58442;52.716;23.560;2023-04-03T07:11:04;101971.40;;;2.04;59.43
70521;BME280;58442;52.716;23.560;2023-04-03T07:13:06;101963.93;;;2.11;59.30
70521;BME280;58442;52.716;23.560;2023-04-03T07:15:16;101968.80;;;2.19;59.14
70521;BME280;58442;52.716;23.560;2023-04-03T07:17:18;101972.62;;;2.29;58.63
70521;BME280;58442;52.716;23.560;2023-04-03T07:19:19;101979.63;;;2.35;58.73
70521;BME280;58442;52.716;23.560;2023-04-03T07:21:21;101966.78;;;2.42;58.57
70521;BME280;58442;52.716;23.560;2023-04-03T07:23:31;101993.37;;;2.49;58.11
70521;BME280;58442;52.716;23.560;2023-04-03T07:25:33;101974.85;;;2.52;58.07
70521;BME280;58442;52.716;23.560;2023-04-03T07:27:35;101983.47;;;2.59;57.98
70521;BME280;58442;52.716;23.560;2023-04-03T07:29:36;101978.66;;;2.66;57.88
70521;BME280;58442;52.716;23.560;2023-04-03T07:31:46;101962.58;;;2.71;57.56
70521;BME280;58442;52.716;23.560;2023-04-03T07:33:48;101977.91;;;2.76;57.35
70521;BME280;58442;52.716;23.560;2023-04-03T07:35:49;101973.37;;;2.82;57.13
70521;BME280;58442;52.716;23.560;2023-04-03T07:37:51;101979.28;;;2.94;57.09
70521;BME280;58442;52.716;23.560;2023-04-03T07:40:01;101984.95;;;3.08;56.88
70521;BME280;58442;52.716;23.560;2023-04-03T07:42:05;101975.05;;;3.23;56.61
70521;BME280;58442;52.716;23.560;2023-04-03T07:44:06;101984.73;;;3.40;56.35
70521;BME280;58442;52.716;23.560;2023-04-03T07:46:11;101991.19;;;3.59;56.23
70521;BME280;58442;52.716;23.560;2023-04-03T07:48:22;101980.13;;;3.76;55.86
70521;BME280;58442;52.716;23.560;2023-04-03T07:50:24;101994.91;;;3.89;55.59
70521;BME280;58442;52.716;23.560;2023-04-03T07:52:27;101984.16;;;3.99;55.13
70521;BME280;58442;52.716;23.560;2023-04-03T07:54:29;101987.90;;;4.08;55.05
70521;BME280;58442;52.716;23.560;2023-04-03T07:56:32;101978.98;;;4.18;54.73
70521;BME280;58442;52.716;23.560;2023-04-03T07:58:34;101986.52;;;4.21;54.37
70521;BME280;58442;52.716;23.560;2023-04-03T08:00:36;101999.70;;;4.27;54.28
70521;BME280;58442;52.716;23.560;2023-04-03T08:02:37;101989.44;;;4.39;54.12
70521;BME280;58442;52.716;23.560;2023-04-03T08:04:47;101989.95;;;4.47;53.93
70521;BME280;58442;52.716;23.560;2023-04-03T08:06:48;101986.68;;;4.55;53.53
70521;BME280;58442;52.716;23.560;2023-04-03T08:08:49;101996.29;;;4.71;53.38
70521;BME280;58442;52.716;23.560;2023-04-03T08:10:53;101992.48;;;4.82;53.12
70521;BME280;58442;52.716;23.560;2023-04-03T08:13:02;101987.61;;;4.84;52.97
70521;BME280;58442;52.716;23.560;2023-04-03T08:15:04;101990.80;;;4.91;52.84
70521;BME280;58442;52.716;23.560;2023-04-03T08:17:07;101990.19;;;5.05;52.75
70521;BME280;58442;52.716;23.560;2023-04-03T08:19:12;101998.48;;;5.13;52.55
70521;BME280;58442;52.716;23.560;2023-04-03T08:21:17;101991.43;;;5.23;52.21
70521;BME280;58442;52.716;23.560;2023-04-03T08:23:18;102011.93;;;5.18;51.82
70521;BME280;58442;52.716;23.560;2023-04-03T08:25:20;101990.66;;;5.17;51.74
70521;BME280;58442;52.716;23.560;2023-04-03T08:27:22;102001.95;;;5.19;51.82
70521;BME280;58442;52.716;23.560;2023-04-03T08:29:31;102000.84;;;5.25;51.45
70521;BME280;58442;52.716;23.560;2023-04-03T08:31:33;102016.20;;;5.25;51.45
70521;BME280;58442;52.716;23.560;2023-04-03T08:33:35;102024.52;;;5.28;51.44
70521;BME280;58442;52.716;23.560;2023-04-03T08:35:39;102017.45;;;5.42;51.33
70521;BME280;58442;52.716;23.560;2023-04-03T08:37:46;102009.72;;;5.65;51.12
70521;BME280;58442;52.716;23.560;2023-04-03T08:39:48;102015.45;;;5.87;51.00
70521;BME280;58442;52.716;23.560;2023-04-03T08:41:49;102008.80;;;6.09;50.73
70521;BME280;58442;52.716;23.560;2023-04-03T08:44:07;102020.18;;;6.29;50.51
70521;BME280;58442;52.716;23.560;2023-04-03T08:46:05;102018.70;;;6.42;50.20
70521;BME280;58442;52.716;23.560;2023-04-03T08:48:12;102021.00;;;6.54;49.99
70521;BME280;58442;52.716;23.560;2023-04-03T08:50:19;102026.91;;;6.56;49.59
70521;BME280;58442;52.716;23.560;2023-04-03T08:56:50;102031.78;;;6.30;49.40
70521;BME280;58442;52.716;23.560;2023-04-03T08:59:11;102028.70;;;6.18;49.46
70521;BME280;58442;52.716;23.560;2023-04-03T09:01:34;102019.04;;;6.12;49.46
70521;BME280;58442;52.716;23.560;2023-04-03T09:03:45;102021.02;;;6.01;49.56
70521;BME280;58442;52.716;23.560;2023-04-03T09:05:53;102027.25;;;5.96;49.61
70521;BME280;58442;52.716;23.560;2023-04-03T09:08:05;102022.07;;;6.05;49.46
70521;BME280;58442;52.716;23.560;2023-04-03T09:10:12;102031.44;;;6.13;49.41
70521;BME280;58442;52.716;23.560;2023-04-03T09:19:15;102013.44;;;6.03;49.28
70521;BME280;58442;52.716;23.560;2023-04-03T09:21:34;102026.59;;;6.10;49.17
70521;BME280;58442;52.716;23.560;2023-04-03T09:23:51;102027.59;;;6.19;49.17
70521;BME280;58442;52.716;23.560;2023-04-03T09:25:58;102020.30;;;6.19;48.95
70521;BME280;58442;52.716;23.560;2023-04-03T09:28:03;102020.30;;;6.19;48.89
70521;BME280;58442;52.716;23.560;2023-04-03T09:30:15;102019.72;;;6.22;48.75
70521;BME280;58442;52.716;23.560;2023-04-03T09:32:27;102022.37;;;6.27;48.68
70521;BME280;58442;52.716;23.560;2023-04-03T09:34:35;102016.12;;;6.32;48.45
70521;BME280;58442;52.716;23.560;2023-04-03T09:36:46;102022.24;;;6.38;48.25
70521;BME280;58442;52.716;23.560;2023-04-03T09:41:05;102027.76;;;6.51;48.19
70521;BME280;58442;52.716;23.560;2023-04-03T09:43:21;102037.25;;;6.49;47.98
70521;BME280;58442;52.716;23.560;2023-04-03T09:45:30;102029.49;;;6.42;48.18
70521;BME280;58442;52.716;23.560;2023-04-03T09:47:36;102021.45;;;6.37;48.35
70521;BME280;58442;52.716;23.560;2023-04-03T09:49:39;102037.65;;;6.37;48.24
70521;BME280;58442;52.716;23.560;2023-04-03T09:51:40;102032.14;;;6.47;47.97
70521;BME280;58442;52.716;23.560;2023-04-03T09:53:43;102033.62;;;6.58;47.79
70521;BME280;58442;52.716;23.560;2023-04-03T09:55:50;102041.73;;;6.58;47.78
70521;BME280;58442;52.716;23.560;2023-04-03T09:57:52;102037.96;;;6.60;47.70
70521;BME280;58442;52.716;23.560;2023-04-03T10:00:01;102031.80;;;6.54;47.66
70521;BME280;58442;52.716;23.560;2023-04-03T10:02:30;102036.06;;;6.60;47.77
70521;BME280;58442;52.716;23.560;2023-04-03T10:04:21;102027.76;;;6.75;47.84
70521;BME280;58442;52.716;23.560;2023-04-03T10:06:31;102043.56;;;6.87;47.64
70521;BME280;58442;52.716;23.560;2023-04-03T10:08:34;102041.31;;;6.94;47.26
70521;BME280;58442;52.716;23.560;2023-04-03T10:10:36;102039.41;;;6.95;46.99
70521;BME280;58442;52.716;23.560;2023-04-03T10:12:38;102057.52;;;6.94;46.99
70521;BME280;58442;52.716;23.560;2023-04-03T10:19:34;102042.82;;;6.81;47.30
70521;BME280;58442;52.716;23.560;2023-04-03T10:24:14;102047.98;;;6.78;47.14
70521;BME280;58442;52.716;23.560;2023-04-03T10:26:39;102041.93;;;6.86;46.92
70521;BME280;58442;52.716;23.560;2023-04-03T10:31:25;102040.50;;;6.94;46.64
70521;BME280;58442;52.716;23.560;2023-04-03T10:33:56;102031.05;;;6.91;46.67
70521;BME280;58442;52.716;23.560;2023-04-03T10:40:51;102032.31;;;6.99;46.06
70521;BME280;58442;52.716;23.560;2023-04-03T10:43:09;102024.07;;;7.09;46.09
70521;BME280;58442;52.716;23.560;2023-04-03T10:57:09;102026.35;;;7.21;45.66
70521;BME280;58442;52.716;23.560;2023-04-03T11:01:31;102029.70;;;7.12;45.66
70521;BME280;58442;52.716;23.560;2023-04-03T11:03:36;102026.19;;;7.12;45.56
70521;BME280;58442;52.716;23.560;2023-04-03T11:05:50;102002.75;;;7.07;45.68
70521;BME280;58442;52.716;23.560;2023-04-03T11:07:57;102008.59;;;7.15;45.69
70521;BME280;58442;52.716;23.560;2023-04-03T11:14:55;102009.16;;;7.11;45.56
70521;BME280;58442;52.716;23.560;2023-04-03T11:19:24;102026.42;;;7.16;45.67
70521;BME280;58442;52.716;23.560;2023-04-03T11:21:32;102019.67;;;7.13;45.61
70521;BME280;58442;52.716;23.560;2023-04-03T11:23:39;102014.37;;;7.08;45.56
70521;BME280;58442;52.716;23.560;2023-04-03T11:25:42;102019.23;;;7.06;45.40
70521;BME280;58442;52.716;23.560;2023-04-03T11:27:48;102011.72;;;7.03;45.39
70521;BME280;58442;52.716;23.560;2023-04-03T11:29:53;102019.59;;;6.99;45.46
70521;BME280;58442;52.716;23.560;2023-04-03T11:36:26;102016.45;;;6.92;45.51
70521;BME280;58442;52.716;23.560;2023-04-03T11:38:44;102012.15;;;6.91;45.14
70521;BME280;58442;52.716;23.560;2023-04-03T11:40:47;102010.59;;;6.85;45.29
70521;BME280;58442;52.716;23.560;2023-04-03T11:42:53;102003.53;;;6.89;45.38
70521;BME280;58442;52.716;23.560;2023-04-03T11:47:11;102004.27;;;6.95;45.35
70521;BME280;58442;52.716;23.560;2023-04-03T11:51:41;101998.56;;;6.96;45.28
70521;BME280;58442;52.716;23.560;2023-04-03T11:53:43;101988.86;;;6.95;45.05
70521;BME280;58442;52.716;23.560;2023-04-03T11:55:54;101995.87;;;6.96;45.18